createdAt,value
2018-01-04T00:00:02.713Z,0
2018-01-04T00:01:04.243Z,0
2018-01-04T00:02:05.634Z,0
2018-01-04T00:03:07.318Z,0
2018-01-04T00:04:08.720Z,0
2018-01-04T00:05:10.131Z,0
2018-01-04T00:06:11.661Z,0
2018-01-04T00:07:13.037Z,0
2018-01-04T00:08:14.437Z,0
2018-01-04T00:09:15.979Z,0
2018-01-04T00:10:17.360Z,0
2018-01-04T00:11:18.769Z,0
2018-01-04T00:12:20.288Z,0
2018-01-04T00:13:21.686Z,0
2018-01-04T00:14:23.080Z,0
2018-01-04T00:15:24.614Z,0
2018-01-04T00:16:26.017Z,0
2018-01-04T00:17:27.424Z,0
2018-01-04T00:18:28.934Z,0
2018-01-04T00:19:30.335Z,0
2018-01-04T00:20:31.732Z,0
2018-01-04T00:21:33.253Z,0
2018-01-04T00:22:34.659Z,0
2018-01-04T00:23:36.747Z,0
2018-01-04T00:24:38.160Z,0
2018-01-04T00:25:39.822Z,0
2018-01-04T00:26:41.222Z,0
2018-01-04T00:27:42.623Z,0
2018-01-04T00:28:44.147Z,0
2018-01-04T00:29:45.543Z,0
2018-01-04T00:30:46.944Z,0
2018-01-04T00:31:48.473Z,0
2018-01-04T00:32:49.871Z,0
2018-01-04T00:33:51.271Z,0
2018-01-04T00:34:52.792Z,0
2018-01-04T00:35:54.194Z,0
2018-01-04T00:36:55.582Z,0
2018-01-04T00:37:57.115Z,0
2018-01-04T00:38:58.511Z,0
2018-01-04T00:39:59.909Z,0
2018-01-04T00:41:01.439Z,0
2018-01-04T00:42:02.832Z,0
2018-01-04T00:43:04.523Z,0
2018-01-04T00:44:05.969Z,0
2018-01-04T00:45:07.519Z,0
2018-01-04T00:46:08.930Z,0
2018-01-04T00:47:10.494Z,0
2018-01-04T00:48:11.894Z,0
2018-01-04T00:49:13.568Z,0
2018-01-04T00:50:14.977Z,0
2018-01-04T00:51:16.673Z,0
2018-01-04T00:52:18.053Z,0
2018-01-04T00:53:19.745Z,0
2018-01-04T00:54:21.142Z,0
2018-01-04T00:55:22.827Z,0
2018-01-04T00:56:24.222Z,0
2018-01-04T00:57:25.622Z,0
2018-01-04T00:58:27.148Z,0
2018-01-04T00:59:28.546Z,0
2018-01-04T01:00:29.951Z,0
2018-01-04T01:01:31.468Z,0
2018-01-04T01:02:32.868Z,0
2018-01-04T01:03:34.266Z,0
2018-01-04T01:04:35.663Z,0
2018-01-04T01:05:37.067Z,0
2018-01-04T01:06:38.461Z,0
2018-01-04T01:07:40.110Z,0
2018-01-04T01:08:41.510Z,0
2018-01-04T01:09:43.195Z,0
2018-01-04T01:10:44.599Z,0
2018-01-04T01:11:45.998Z,0
2018-01-04T01:12:47.515Z,0
2018-01-04T01:13:48.929Z,0
2018-01-04T01:14:50.341Z,0
2018-01-04T01:15:52.042Z,0
2018-01-04T01:16:53.441Z,0
2018-01-04T01:17:55.138Z,0
2018-01-04T01:18:57.204Z,0
2018-01-04T01:19:58.828Z,0
2018-01-04T01:21:00.228Z,0
2018-01-04T01:22:01.913Z,0
2018-01-04T01:23:03.314Z,0
2018-01-04T01:24:05.385Z,0
2018-01-04T01:25:06.781Z,0
2018-01-04T01:26:08.289Z,0
2018-01-04T01:27:09.687Z,0
2018-01-04T01:28:11.378Z,0
2018-01-04T01:29:12.779Z,0
2018-01-04T01:30:14.460Z,0
2018-01-04T01:31:15.861Z,0
2018-01-04T01:32:17.545Z,0
2018-01-04T01:33:18.944Z,0
2018-01-04T01:34:20.630Z,0
2018-01-04T01:35:22.034Z,0
2018-01-04T01:36:23.717Z,0
2018-01-04T01:37:25.116Z,0
2018-01-04T01:38:26.803Z,0
2018-01-04T01:39:28.204Z,0
2018-01-04T01:40:29.888Z,0
2018-01-04T01:41:31.298Z,0
2018-01-04T01:42:32.980Z,0
2018-01-04T01:43:34.381Z,0
2018-01-04T01:44:36.059Z,0
2018-01-04T01:45:37.537Z,0
2018-01-04T01:46:39.145Z,0
2018-01-04T01:47:40.543Z,0
2018-01-04T01:48:42.231Z,0
2018-01-04T01:49:43.629Z,0
2018-01-04T01:50:45.316Z,0
2018-01-04T01:51:46.715Z,0
2018-01-04T01:52:48.118Z,0
2018-01-04T01:53:49.637Z,0
2018-01-04T01:54:51.035Z,0
2018-01-04T01:55:52.437Z,0
2018-01-04T01:56:54.982Z,0
2018-01-04T01:57:56.383Z,0
2018-01-04T01:58:58.068Z,0
2018-01-04T01:59:59.471Z,0
2018-01-04T02:01:01.153Z,0
2018-01-04T02:02:02.581Z,0
2018-01-04T02:03:04.280Z,0
2018-01-04T02:04:05.680Z,0
2018-01-04T02:05:07.331Z,0
2018-01-04T02:06:08.730Z,0
2018-01-04T02:07:10.132Z,0
2018-01-04T02:08:11.648Z,0
2018-01-04T02:09:13.048Z,0
2018-01-04T02:10:14.480Z,0
2018-01-04T02:11:16.173Z,0
2018-01-04T02:12:17.577Z,0
2018-01-04T02:13:18.993Z,0
2018-01-04T02:14:20.492Z,0
2018-01-04T02:15:21.891Z,0
2018-01-04T02:16:23.325Z,0
2018-01-04T02:17:25.019Z,0
2018-01-04T02:18:26.436Z,0
2018-01-04T02:19:27.836Z,0
2018-01-04T02:20:29.370Z,0
2018-01-04T02:21:30.776Z,0
2018-01-04T02:22:32.182Z,0
2018-01-04T02:23:33.871Z,0
2018-01-04T02:24:35.271Z,0
2018-01-04T02:25:36.952Z,0
2018-01-04T02:26:38.351Z,0
2018-01-04T02:27:40.038Z,0
2018-01-04T02:28:41.438Z,0
2018-01-04T02:29:43.121Z,0
2018-01-04T02:30:44.529Z,0
2018-01-04T02:31:46.208Z,0
2018-01-04T02:32:47.608Z,0
2018-01-04T02:33:49.294Z,0
2018-01-04T02:34:50.693Z,0
2018-01-04T02:35:52.380Z,0
2018-01-04T02:36:53.779Z,0
2018-01-04T02:37:55.178Z,0
2018-01-04T02:38:56.707Z,0
2018-01-04T02:39:58.105Z,0
2018-01-04T02:40:59.507Z,0
2018-01-04T02:42:01.027Z,0
2018-01-04T02:43:02.428Z,0
2018-01-04T02:44:03.826Z,0
2018-01-04T02:45:05.341Z,0
2018-01-04T02:46:06.739Z,0
2018-01-04T02:47:08.144Z,0
2018-01-04T02:48:09.675Z,0
2018-01-04T02:49:11.062Z,0
2018-01-04T02:50:12.464Z,0
2018-01-04T02:51:13.987Z,0
2018-01-04T02:52:15.383Z,0
2018-01-04T02:53:16.785Z,0
2018-01-04T02:54:18.310Z,0
2018-01-04T02:55:19.714Z,0
2018-01-04T02:56:21.397Z,0
2018-01-04T02:57:22.820Z,0
2018-01-04T02:58:24.478Z,0
2018-01-04T02:59:25.892Z,0
2018-01-04T03:00:27.566Z,0
2018-01-04T03:01:28.981Z,0
2018-01-04T03:02:30.648Z,0
2018-01-04T03:03:32.051Z,0
2018-01-04T03:04:33.732Z,0
2018-01-04T03:05:35.132Z,0
2018-01-04T03:06:36.830Z,0
2018-01-04T03:07:38.233Z,0
2018-01-04T03:08:39.904Z,0
2018-01-04T03:09:41.308Z,0
2018-01-04T03:10:42.994Z,0
2018-01-04T03:11:44.401Z,0
2018-01-04T03:12:46.077Z,0
2018-01-04T03:13:47.475Z,0
2018-01-04T03:14:48.872Z,0
2018-01-04T03:15:50.395Z,0
2018-01-04T03:16:51.808Z,0
2018-01-04T03:17:53.208Z,0
2018-01-04T03:18:54.718Z,0
2018-01-04T03:19:56.126Z,0
2018-01-04T03:20:57.523Z,0
2018-01-04T03:21:59.037Z,0
2018-01-04T03:23:00.444Z,0
2018-01-04T03:24:01.847Z,0
2018-01-04T03:25:03.360Z,0
2018-01-04T03:26:04.762Z,0
2018-01-04T03:27:06.165Z,0
2018-01-04T03:28:07.683Z,0
2018-01-04T03:29:09.083Z,0
2018-01-04T03:30:10.768Z,0
2018-01-04T03:31:12.171Z,0
2018-01-04T03:32:13.850Z,0
2018-01-04T03:33:15.266Z,0
2018-01-04T03:34:16.665Z,0
2018-01-04T03:35:18.175Z,0
2018-01-04T03:36:19.580Z,0
2018-01-04T03:37:20.979Z,0
2018-01-04T03:38:22.495Z,0
2018-01-04T03:39:23.895Z,0
2018-01-04T03:40:25.301Z,0
2018-01-04T03:41:26.817Z,0
2018-01-04T03:42:28.222Z,0
2018-01-04T03:43:29.629Z,0
2018-01-04T03:44:31.026Z,0
2018-01-04T03:45:32.577Z,0
2018-01-04T03:46:33.982Z,0
2018-01-04T03:47:35.668Z,0
2018-01-04T03:48:37.066Z,0
2018-01-04T03:49:38.751Z,0
2018-01-04T03:50:40.151Z,0
2018-01-04T03:51:41.834Z,0
2018-01-04T03:52:43.266Z,0
2018-01-04T03:53:44.667Z,0
2018-01-04T03:54:46.157Z,0
2018-01-04T03:55:47.557Z,0
2018-01-04T03:56:48.996Z,0
2018-01-04T03:57:50.516Z,0
2018-01-04T03:58:51.901Z,0
2018-01-04T03:59:53.300Z,0
2018-01-04T04:00:54.797Z,0
2018-01-04T04:01:56.200Z,0
2018-01-04T04:02:57.596Z,0
2018-01-04T04:03:59.119Z,0
2018-01-04T04:05:00.527Z,0
2018-01-04T04:06:01.927Z,0
2018-01-04T04:07:03.439Z,0
2018-01-04T04:08:04.847Z,0
2018-01-04T04:09:06.248Z,0
2018-01-04T04:10:07.761Z,0
2018-01-04T04:11:09.161Z,0
2018-01-04T04:12:10.642Z,0
2018-01-04T04:13:12.042Z,0
2018-01-04T04:14:13.524Z,0
2018-01-04T04:15:14.927Z,0
2018-01-04T04:16:16.608Z,0
2018-01-04T04:17:18.014Z,0
2018-01-04T04:18:19.700Z,0
2018-01-04T04:19:21.098Z,0
2018-01-04T04:20:22.503Z,0
2018-01-04T04:21:24.015Z,0
2018-01-04T04:22:25.412Z,0
2018-01-04T04:23:26.818Z,0
2018-01-04T04:24:28.374Z,0
2018-01-04T04:25:29.803Z,0
2018-01-04T04:26:31.421Z,0
2018-01-04T04:27:32.824Z,0
2018-01-04T04:28:34.232Z,0
2018-01-04T04:29:35.742Z,0
2018-01-04T04:30:37.143Z,0
2018-01-04T04:31:38.543Z,0
2018-01-04T04:32:40.063Z,0
2018-01-04T04:33:41.472Z,0
2018-01-04T04:34:42.867Z,0
2018-01-04T04:35:44.385Z,0
2018-01-04T04:36:45.801Z,0
2018-01-04T04:37:47.248Z,0
2018-01-04T04:38:48.911Z,0
2018-01-04T04:39:50.320Z,0
2018-01-04T04:40:52.000Z,0
2018-01-04T04:41:53.402Z,0
2018-01-04T04:42:55.082Z,0
2018-01-04T04:43:56.488Z,0
2018-01-04T04:44:57.895Z,0
2018-01-04T04:45:59.405Z,0
2018-01-04T04:47:00.802Z,0
2018-01-04T04:48:02.200Z,0
2018-01-04T04:49:03.726Z,0
2018-01-04T04:50:05.123Z,0
2018-01-04T04:51:06.606Z,0
2018-01-04T04:52:08.037Z,0
2018-01-04T04:53:09.694Z,0
2018-01-04T04:54:11.139Z,0
2018-01-04T04:55:12.780Z,0
2018-01-04T04:56:14.187Z,0
2018-01-04T04:57:15.862Z,0
2018-01-04T04:58:17.262Z,0
2018-01-04T04:59:18.745Z,0
2018-01-04T05:00:20.189Z,0
2018-01-04T05:01:21.828Z,0
2018-01-04T05:02:23.243Z,0
2018-01-04T05:03:24.969Z,0
2018-01-04T05:04:26.373Z,0
2018-01-04T05:05:28.001Z,0
2018-01-04T05:06:29.408Z,0
2018-01-04T05:07:30.882Z,0
2018-01-04T05:08:32.278Z,0
2018-01-04T05:09:33.678Z,0
2018-01-04T05:10:35.237Z,0
2018-01-04T05:11:36.604Z,0
2018-01-04T05:12:38.004Z,0
2018-01-04T05:13:39.528Z,0
2018-01-04T05:14:40.927Z,0
2018-01-04T05:15:42.324Z,0
2018-01-04T05:16:43.845Z,0
2018-01-04T05:17:45.265Z,0
2018-01-04T05:18:46.649Z,0
2018-01-04T05:19:48.201Z,0
2018-01-04T05:20:49.623Z,0
2018-01-04T05:21:51.252Z,0
2018-01-04T05:22:52.650Z,0
2018-01-04T05:23:54.065Z,0
2018-01-04T05:24:55.576Z,0
2018-01-04T05:25:57.012Z,0
2018-01-04T05:26:58.413Z,0
2018-01-04T05:27:59.892Z,0
2018-01-04T05:29:01.292Z,0
2018-01-04T05:30:02.699Z,0
2018-01-04T05:31:04.215Z,0
2018-01-04T05:32:05.612Z,0
2018-01-04T05:33:07.016Z,0
2018-01-04T05:34:08.535Z,0
2018-01-04T05:35:09.941Z,0
2018-01-04T05:36:11.418Z,0
2018-01-04T05:37:12.821Z,0
2018-01-04T05:38:14.296Z,0
2018-01-04T05:39:15.717Z,0
2018-01-04T05:40:17.394Z,0
2018-01-04T05:41:18.793Z,0
2018-01-04T05:42:20.469Z,0
2018-01-04T05:43:21.869Z,0
2018-01-04T05:44:23.380Z,0
2018-01-04T05:45:24.784Z,0
2018-01-04T05:46:26.435Z,0
2018-01-04T05:47:27.835Z,0
2018-01-04T05:48:29.315Z,0
2018-01-04T05:49:30.716Z,0
2018-01-04T05:50:32.412Z,0
2018-01-04T05:51:33.826Z,0
2018-01-04T05:52:35.486Z,0
2018-01-04T05:53:36.887Z,0
2018-01-04T05:54:38.292Z,0
2018-01-04T05:55:39.806Z,0
2018-01-04T05:56:41.211Z,0
2018-01-04T05:57:42.608Z,0
2018-01-04T05:58:44.130Z,0
2018-01-04T05:59:45.532Z,0
2018-01-04T06:00:46.979Z,0
2018-01-04T06:01:48.450Z,0
2018-01-04T06:02:49.851Z,0
2018-01-04T06:03:51.337Z,0
2018-01-04T06:04:52.769Z,0
2018-01-04T06:05:54.171Z,0
2018-01-04T06:06:55.669Z,0
2018-01-04T06:07:57.087Z,0
2018-01-04T06:08:58.490Z,0
2018-01-04T06:09:59.972Z,0
2018-01-04T06:11:01.375Z,0
2018-01-04T06:12:02.857Z,0
2018-01-04T06:13:04.251Z,0
2018-01-04T06:14:05.735Z,0
2018-01-04T06:15:07.137Z,0
2018-01-04T06:16:08.615Z,0
2018-01-04T06:17:10.016Z,0
2018-01-04T06:18:11.498Z,0
2018-01-04T06:19:12.903Z,0
2018-01-04T06:20:14.676Z,0
2018-01-04T06:21:16.124Z,0
2018-01-04T06:22:17.531Z,0
2018-01-04T06:23:18.925Z,0
2018-01-04T06:24:20.344Z,0
2018-01-04T06:25:21.870Z,0
2018-01-04T06:26:23.271Z,0
2018-01-04T06:27:24.766Z,0
2018-01-04T06:28:26.166Z,0
2018-01-04T06:29:27.569Z,0
2018-01-04T06:30:28.985Z,0
2018-01-04T06:31:30.388Z,0
2018-01-04T06:32:31.867Z,0
2018-01-04T06:33:33.265Z,0
2018-01-04T06:34:34.755Z,0
2018-01-04T06:35:36.156Z,0
2018-01-04T06:36:37.656Z,0
2018-01-04T06:37:39.065Z,0
2018-01-04T06:38:40.509Z,0
2018-01-04T06:39:41.935Z,0
2018-01-04T06:40:43.400Z,0
2018-01-04T06:41:44.796Z,0
2018-01-04T06:42:46.283Z,0
2018-01-04T06:43:47.683Z,0
2018-01-04T06:44:49.156Z,0
2018-01-04T06:45:50.578Z,0
2018-01-04T06:46:51.977Z,0
2018-01-04T06:47:53.474Z,0
2018-01-04T06:48:54.872Z,0
2018-01-04T06:49:56.274Z,0
2018-01-04T06:50:57.720Z,0
2018-01-04T06:51:59.122Z,0
2018-01-04T06:53:00.527Z,0
2018-01-04T06:54:01.930Z,0
2018-01-04T06:55:03.352Z,0
2018-01-04T06:56:04.751Z,0
2018-01-04T06:57:06.154Z,0
2018-01-04T06:58:07.569Z,0
2018-01-04T06:59:08.967Z,0
2018-01-04T07:00:10.374Z,0
2018-01-04T07:01:11.793Z,0
2018-01-04T07:02:13.191Z,0
2018-01-04T07:03:14.591Z,0
2018-01-04T07:04:16.007Z,0
2018-01-04T07:05:17.406Z,0
2018-01-04T07:06:18.810Z,0
2018-01-04T07:07:20.225Z,0
2018-01-04T07:08:21.626Z,0
2018-01-04T07:09:23.105Z,0
2018-01-04T07:10:24.502Z,0
2018-01-04T07:11:25.902Z,0
2018-01-04T07:12:27.324Z,0
2018-01-04T07:13:28.721Z,0
2018-01-04T07:14:30.125Z,0
2018-01-04T07:15:31.544Z,0
2018-01-04T07:16:32.942Z,0
2018-01-04T07:17:34.347Z,0
2018-01-04T07:18:35.764Z,0
2018-01-04T07:19:37.161Z,0
2018-01-04T07:20:38.595Z,0
2018-01-04T07:21:40.085Z,0
2018-01-04T07:22:41.486Z,0
2018-01-04T07:23:42.965Z,0
2018-01-04T07:24:44.373Z,0
2018-01-04T07:25:45.849Z,0
2018-01-04T07:26:47.247Z,0
2018-01-04T07:27:48.725Z,0
2018-01-04T07:28:50.145Z,0
2018-01-04T07:29:51.607Z,0
2018-01-04T07:30:53.007Z,0
2018-01-04T07:31:54.406Z,0
2018-01-04T07:32:55.808Z,0
2018-01-04T07:33:57.209Z,0
2018-01-04T07:34:58.706Z,0
2018-01-04T07:36:00.113Z,0
2018-01-04T07:37:01.517Z,0
2018-01-04T07:38:02.920Z,0
2018-01-04T07:39:04.368Z,0
2018-01-04T07:40:05.767Z,0
2018-01-04T07:41:07.169Z,0
2018-01-04T07:42:08.586Z,0
2018-01-04T07:43:09.985Z,0
2018-01-04T07:44:11.387Z,0
2018-01-04T07:45:12.805Z,0
2018-01-04T07:46:14.221Z,0
2018-01-04T07:47:15.604Z,0
2018-01-04T07:48:17.024Z,0
2018-01-04T07:49:18.425Z,0
2018-01-04T07:50:19.827Z,0
2018-01-04T07:51:21.345Z,0
2018-01-04T07:52:22.745Z,5
2018-01-04T07:53:24.227Z,0
2018-01-04T07:54:25.631Z,0
2018-01-04T07:55:27.107Z,0
2018-01-04T07:56:28.506Z,0
2018-01-04T07:57:29.986Z,5
2018-01-04T07:58:31.398Z,0
2018-01-04T07:59:32.867Z,5
2018-01-04T08:00:34.264Z,5
2018-01-04T08:01:35.667Z,0
2018-01-04T08:02:37.085Z,0
2018-01-04T08:03:38.487Z,0
2018-01-04T08:04:39.894Z,0
2018-01-04T08:05:41.413Z,0
2018-01-04T08:06:42.809Z,0
2018-01-04T08:07:44.208Z,5
2018-01-04T08:08:45.633Z,5
2018-01-04T08:09:47.032Z,5
2018-01-04T08:10:48.507Z,5
2018-01-04T08:11:49.903Z,5
2018-01-04T08:12:51.315Z,10
2018-01-04T08:13:52.828Z,5
2018-01-04T08:14:54.229Z,5
2018-01-04T08:15:55.652Z,5
2018-01-04T08:16:57.148Z,5
2018-01-04T08:17:58.552Z,5
2018-01-04T08:19:00.030Z,5
2018-01-04T08:20:01.435Z,10
2018-01-04T08:21:02.910Z,5
2018-01-04T08:22:04.311Z,10
2018-01-04T08:23:05.714Z,10
2018-01-04T08:24:07.232Z,5
2018-01-04T08:25:08.635Z,5
2018-01-04T08:26:10.036Z,5
2018-01-04T08:27:11.556Z,10
2018-01-04T08:28:12.961Z,15
2018-01-04T08:29:14.436Z,20
2018-01-04T08:30:15.852Z,25
2018-01-04T08:31:17.316Z,25
2018-01-04T08:32:18.716Z,25
2018-01-04T08:33:20.224Z,25
2018-01-04T08:34:21.640Z,30
2018-01-04T08:35:23.092Z,30
2018-01-04T08:36:24.494Z,30
2018-01-04T08:37:25.958Z,30
2018-01-04T08:38:27.361Z,30
2018-01-04T08:39:28.840Z,30
2018-01-04T08:40:30.241Z,30
2018-01-04T08:41:31.725Z,25
2018-01-04T08:42:33.127Z,25
2018-01-04T08:43:34.613Z,25
2018-01-04T08:44:36.005Z,25
2018-01-04T08:45:37.488Z,25
2018-01-04T08:46:38.892Z,25
2018-01-04T08:47:40.362Z,25
2018-01-04T08:48:41.766Z,35
2018-01-04T08:49:43.247Z,30
2018-01-04T08:50:44.651Z,35
2018-01-04T08:51:46.129Z,40
2018-01-04T08:52:47.528Z,40
2018-01-04T08:53:48.931Z,40
2018-01-04T08:54:50.447Z,45
2018-01-04T08:55:51.851Z,40
2018-01-04T08:56:53.268Z,45
2018-01-04T08:57:54.766Z,40
2018-01-04T08:58:56.173Z,45
2018-01-04T08:59:57.647Z,45
2018-01-04T09:00:59.059Z,45
2018-01-04T09:02:00.528Z,45
2018-01-04T09:03:01.933Z,40
2018-01-04T09:04:03.433Z,45
2018-01-04T09:05:04.836Z,45
2018-01-04T09:06:06.290Z,50
2018-01-04T09:07:07.700Z,45
2018-01-04T09:08:09.102Z,40
2018-01-04T09:09:10.610Z,45
2018-01-04T09:10:12.015Z,40
2018-01-04T09:11:13.432Z,40
2018-01-04T09:12:14.932Z,35
2018-01-04T09:13:16.339Z,35
2018-01-04T09:14:17.739Z,40
2018-01-04T09:15:20.175Z,45
2018-01-04T09:16:21.576Z,50
2018-01-04T09:17:22.981Z,55
2018-01-04T09:18:24.495Z,60
2018-01-04T09:19:25.952Z,60
2018-01-04T09:20:27.303Z,50
2018-01-04T09:21:28.816Z,45
2018-01-04T09:22:30.218Z,55
2018-01-04T09:23:31.626Z,50
2018-01-04T09:24:33.137Z,50
2018-01-04T09:25:34.551Z,60
2018-01-04T09:26:35.955Z,55
2018-01-04T09:27:37.464Z,50
2018-01-04T09:28:38.867Z,50
2018-01-04T09:29:40.277Z,50
2018-01-04T09:30:41.778Z,55
2018-01-04T09:31:43.183Z,60
2018-01-04T09:32:44.585Z,55
2018-01-04T09:33:46.103Z,65
2018-01-04T09:34:47.530Z,60
2018-01-04T09:35:49.002Z,60
2018-01-04T09:36:50.404Z,50
2018-01-04T09:37:51.864Z,55
2018-01-04T09:38:53.266Z,55
2018-01-04T09:39:54.743Z,40
2018-01-04T09:40:56.160Z,35
2018-01-04T09:41:57.623Z,40
2018-01-04T09:42:59.025Z,45
2018-01-04T09:44:00.505Z,55
2018-01-04T09:45:01.916Z,50
2018-01-04T09:46:03.412Z,55
2018-01-04T09:47:04.809Z,55
2018-01-04T09:48:06.212Z,55
2018-01-04T09:49:07.734Z,50
2018-01-04T09:50:09.204Z,50
2018-01-04T09:51:10.568Z,55
2018-01-04T09:52:12.037Z,55
2018-01-04T09:53:13.460Z,55
2018-01-04T09:54:14.911Z,60
2018-01-04T09:55:16.321Z,50
2018-01-04T09:56:17.793Z,45
2018-01-04T09:57:19.196Z,35
2018-01-04T09:58:20.678Z,35
2018-01-04T09:59:22.078Z,40
2018-01-04T10:00:23.549Z,35
2018-01-04T10:01:25.359Z,40
2018-01-04T10:02:26.843Z,45
2018-01-04T10:03:28.250Z,40
2018-01-04T10:04:29.753Z,35
2018-01-04T10:05:31.153Z,35
2018-01-04T10:06:32.602Z,25
2018-01-04T10:07:34.009Z,25
2018-01-04T10:08:35.412Z,25
2018-01-04T10:09:36.925Z,25
2018-01-04T10:10:38.371Z,30
2018-01-04T10:11:39.733Z,25
2018-01-04T10:12:41.254Z,35
2018-01-04T10:13:42.659Z,45
2018-01-04T10:14:44.065Z,45
2018-01-04T10:15:45.568Z,45
2018-01-04T10:16:46.973Z,55
2018-01-04T10:17:48.381Z,60
2018-01-04T10:18:49.904Z,55
2018-01-04T10:19:51.287Z,55
2018-01-04T10:20:52.769Z,50
2018-01-04T10:21:54.176Z,50
2018-01-04T10:22:55.662Z,45
2018-01-04T10:23:57.053Z,45
2018-01-04T10:24:58.546Z,45
2018-01-04T10:25:59.954Z,40
2018-01-04T10:27:01.418Z,35
2018-01-04T10:28:02.823Z,30
2018-01-04T10:29:04.291Z,35
2018-01-04T10:30:05.699Z,50
2018-01-04T10:31:07.556Z,45
2018-01-04T10:32:08.961Z,50
2018-01-04T10:33:10.461Z,45
2018-01-04T10:34:11.869Z,45
2018-01-04T10:35:13.297Z,65
2018-01-04T10:36:14.786Z,80
2018-01-04T10:37:16.191Z,75
2018-01-04T10:38:17.598Z,70
2018-01-04T10:39:19.107Z,70
2018-01-04T10:40:20.540Z,80
2018-01-04T10:41:21.951Z,75
2018-01-04T10:42:23.428Z,75
2018-01-04T10:43:24.848Z,85
2018-01-04T10:44:26.249Z,90
2018-01-04T10:45:27.750Z,90
2018-01-04T10:46:29.155Z,100
2018-01-04T10:47:30.562Z,105
2018-01-04T10:48:32.077Z,105
2018-01-04T10:49:33.477Z,85
2018-01-04T10:50:34.950Z,80
2018-01-04T10:51:36.355Z,70
2018-01-04T10:52:37.830Z,80
2018-01-04T10:53:39.238Z,80
2018-01-04T10:54:40.712Z,75
2018-01-04T10:55:42.120Z,80
2018-01-04T10:56:43.592Z,90
2018-01-04T10:57:45.022Z,80
2018-01-04T10:58:46.403Z,85
2018-01-04T10:59:47.915Z,90
2018-01-04T11:00:49.322Z,90
2018-01-04T11:01:50.721Z,65
2018-01-04T11:02:52.240Z,65
2018-01-04T11:03:53.645Z,65
2018-01-04T11:04:55.051Z,65
2018-01-04T11:05:56.576Z,80
2018-01-04T11:06:57.997Z,90
2018-01-04T11:07:59.445Z,105
2018-01-04T11:09:00.871Z,115
2018-01-04T11:10:02.278Z,115
2018-01-04T11:11:03.761Z,105
2018-01-04T11:12:05.168Z,95
2018-01-04T11:13:06.571Z,95
2018-01-04T11:14:08.082Z,100
2018-01-04T11:15:09.490Z,100
2018-01-04T11:16:10.897Z,105
2018-01-04T11:17:12.406Z,110
2018-01-04T11:18:13.812Z,115
2018-01-04T11:19:15.226Z,115
2018-01-04T11:20:16.724Z,110
2018-01-04T11:21:18.135Z,100
2018-01-04T11:22:19.603Z,95
2018-01-04T11:23:21.013Z,95
2018-01-04T11:24:22.418Z,95
2018-01-04T11:25:23.925Z,105
2018-01-04T11:26:25.335Z,105
2018-01-04T11:27:26.739Z,110
2018-01-04T11:28:28.250Z,105
2018-01-04T11:29:29.662Z,105
2018-01-04T11:30:31.127Z,105
2018-01-04T11:31:32.537Z,100
2018-01-04T11:32:34.015Z,95
2018-01-04T11:33:35.419Z,85
2018-01-04T11:34:36.825Z,80
2018-01-04T11:35:38.328Z,70
2018-01-04T11:36:39.729Z,60
2018-01-04T11:37:41.146Z,50
2018-01-04T11:38:42.649Z,50
2018-01-04T11:39:44.051Z,50
2018-01-04T11:40:45.456Z,55
2018-01-04T11:41:46.968Z,55
2018-01-04T11:42:48.369Z,60
2018-01-04T11:43:49.773Z,60
2018-01-04T11:44:51.288Z,60
2018-01-04T11:45:52.704Z,60
2018-01-04T11:46:54.114Z,60
2018-01-04T11:47:55.609Z,55
2018-01-04T11:48:57.012Z,55
2018-01-04T11:49:58.536Z,55
2018-01-04T11:50:59.938Z,60
2018-01-04T11:52:01.377Z,55
2018-01-04T11:53:02.811Z,60
2018-01-04T11:54:04.216Z,65
2018-01-04T11:55:05.625Z,70
2018-01-04T11:56:07.135Z,70
2018-01-04T11:57:08.538Z,70
2018-01-04T11:58:09.948Z,70
2018-01-04T11:59:11.462Z,75
2018-01-04T12:00:12.872Z,75
2018-01-04T12:01:14.303Z,85
2018-01-04T12:02:15.808Z,110
2018-01-04T12:03:17.242Z,120
2018-01-04T12:04:18.688Z,120
2018-01-04T12:05:20.202Z,105
2018-01-04T12:06:21.626Z,95
2018-01-04T12:07:23.083Z,100
2018-01-04T12:08:24.517Z,100
2018-01-04T12:09:25.964Z,100
2018-01-04T12:10:27.370Z,100
2018-01-04T12:11:28.865Z,100
2018-01-04T12:12:30.273Z,105
2018-01-04T12:13:31.724Z,95
2018-01-04T12:14:33.130Z,80
2018-01-04T12:15:34.609Z,80
2018-01-04T12:16:36.029Z,80
2018-01-04T12:17:37.488Z,95
2018-01-04T12:18:38.892Z,95
2018-01-04T12:19:40.299Z,95
2018-01-04T12:20:41.806Z,90
2018-01-04T12:21:43.213Z,85
2018-01-04T12:22:44.620Z,75
2018-01-04T12:23:46.129Z,70
2018-01-04T12:24:47.536Z,65
2018-01-04T12:25:48.942Z,60
2018-01-04T12:26:50.450Z,65
2018-01-04T12:27:51.857Z,65
2018-01-04T12:28:53.265Z,60
2018-01-04T12:29:55.694Z,60
2018-01-04T12:30:57.166Z,65
2018-01-04T12:31:58.617Z,60
2018-01-04T12:33:00.030Z,60
2018-01-04T12:34:01.458Z,70
2018-01-04T12:35:02.865Z,70
2018-01-04T12:36:04.334Z,70
2018-01-04T12:37:05.745Z,70
2018-01-04T12:38:07.217Z,75
2018-01-04T12:39:08.627Z,70
2018-01-04T12:40:10.115Z,70
2018-01-04T12:41:11.521Z,80
2018-01-04T12:42:12.927Z,90
2018-01-04T12:43:14.418Z,95
2018-01-04T12:44:15.829Z,100
2018-01-04T12:45:17.240Z,95
2018-01-04T12:46:18.782Z,90
2018-01-04T12:47:20.192Z,95
2018-01-04T12:48:21.599Z,95
2018-01-04T12:49:23.060Z,95
2018-01-04T12:50:24.466Z,95
2018-01-04T12:51:25.871Z,90
2018-01-04T12:52:27.380Z,85
2018-01-04T12:53:28.787Z,85
2018-01-04T12:54:30.220Z,90
2018-01-04T12:55:31.705Z,95
2018-01-04T12:56:33.111Z,95
2018-01-04T12:57:34.581Z,90
2018-01-04T12:58:35.988Z,85
2018-01-04T12:59:37.480Z,80
2018-01-04T13:00:38.976Z,80
2018-01-04T13:01:40.444Z,80
2018-01-04T13:02:41.852Z,80
2018-01-04T13:03:43.329Z,85
2018-01-04T13:04:44.746Z,95
2018-01-04T13:05:46.147Z,105
2018-01-04T13:06:47.648Z,115
2018-01-04T13:07:49.055Z,110
2018-01-04T13:08:50.465Z,100
2018-01-04T13:09:51.968Z,85
2018-01-04T13:10:53.377Z,75
2018-01-04T13:11:54.848Z,60
2018-01-04T13:12:56.255Z,60
2018-01-04T13:13:57.730Z,60
2018-01-04T13:14:59.178Z,60
2018-01-04T13:16:00.591Z,60
2018-01-04T13:17:02.050Z,65
2018-01-04T13:18:03.461Z,70
2018-01-04T13:19:04.868Z,75
2018-01-04T13:20:06.371Z,75
2018-01-04T13:21:07.831Z,65
2018-01-04T13:22:09.188Z,65
2018-01-04T13:23:10.699Z,65
2018-01-04T13:24:12.108Z,65
2018-01-04T13:25:13.513Z,65
2018-01-04T13:26:15.014Z,65
2018-01-04T13:27:16.423Z,70
2018-01-04T13:28:17.894Z,75
2018-01-04T13:29:19.363Z,80
2018-01-04T13:30:20.878Z,85
2018-01-04T13:31:22.285Z,80
2018-01-04T13:32:23.711Z,75
2018-01-04T13:33:25.199Z,75
2018-01-04T13:34:26.648Z,70
2018-01-04T13:35:28.039Z,70
2018-01-04T13:36:29.526Z,65
2018-01-04T13:37:30.926Z,65
2018-01-04T13:38:32.332Z,60
2018-01-04T13:39:33.858Z,50
2018-01-04T13:40:35.268Z,45
2018-01-04T13:41:36.668Z,45
2018-01-04T13:42:38.162Z,40
2018-01-04T13:43:39.630Z,35
2018-01-04T13:44:41.144Z,35
2018-01-04T13:45:42.549Z,35
2018-01-04T13:46:44.025Z,35
2018-01-04T13:47:45.428Z,35
2018-01-04T13:48:46.904Z,40
2018-01-04T13:49:48.310Z,40
2018-01-04T13:50:49.787Z,40
2018-01-04T13:51:51.189Z,40
2018-01-04T13:52:52.594Z,35
2018-01-04T13:53:54.127Z,40
2018-01-04T13:54:55.538Z,35
2018-01-04T13:55:56.937Z,30
2018-01-04T13:56:58.429Z,25
2018-01-04T13:57:59.908Z,25
2018-01-04T13:59:01.416Z,25
2018-01-04T14:00:02.815Z,25
2018-01-04T14:01:04.293Z,25
2018-01-04T14:02:05.704Z,25
2018-01-04T14:03:07.173Z,25
2018-01-04T14:04:08.578Z,20
2018-01-04T14:05:10.059Z,20
2018-01-04T14:06:11.462Z,25
2018-01-04T14:07:12.940Z,20
2018-01-04T14:08:14.344Z,20
2018-01-04T14:09:15.816Z,20
2018-01-04T14:10:17.220Z,15
2018-01-04T14:11:18.624Z,15
2018-01-04T14:12:20.888Z,15
2018-01-04T14:13:22.292Z,15
2018-01-04T14:14:23.692Z,15
2018-01-04T14:15:25.176Z,15
2018-01-04T14:16:26.579Z,15
2018-01-04T14:17:28.040Z,15
2018-01-04T14:18:29.502Z,15
2018-01-04T14:19:30.904Z,15
2018-01-04T14:20:32.311Z,15
2018-01-04T14:21:33.817Z,15
2018-01-04T14:22:35.225Z,15
2018-01-04T14:23:36.668Z,15
2018-01-04T14:24:38.140Z,15
2018-01-04T14:25:39.588Z,15
2018-01-04T14:26:40.971Z,10
2018-01-04T14:27:42.461Z,10
2018-01-04T14:28:43.864Z,10
2018-01-04T14:29:45.358Z,10
2018-01-04T14:30:46.761Z,10
2018-01-04T14:31:48.165Z,10
2018-01-04T14:32:49.661Z,10
2018-01-04T14:33:51.064Z,10
2018-01-04T14:34:52.467Z,10
2018-01-04T14:35:53.885Z,10
2018-01-04T14:36:55.288Z,15
2018-01-04T14:37:56.763Z,15
2018-01-04T14:38:58.170Z,10
2018-01-04T14:39:59.688Z,15
2018-01-04T14:41:01.064Z,10
2018-01-04T14:42:02.518Z,10
2018-01-04T14:43:03.966Z,10
2018-01-04T14:44:05.379Z,10
2018-01-04T14:45:06.784Z,15
2018-01-04T14:46:08.288Z,15
2018-01-04T14:47:09.691Z,15
2018-01-04T14:48:11.169Z,15
2018-01-04T14:49:12.570Z,20
2018-01-04T14:50:14.054Z,15
2018-01-04T14:51:15.460Z,15
2018-01-04T14:52:16.865Z,15